Welch, Texas
Current Conditions -  °F | °C
As of 11:15 PM on Wednesday 22 Oct 2014 (Local Time) from KGNC Reporting Station
Clear Clear  
Wind Chill: 58°   Ceiling: Unl
Heat Index: 58°   Visibility: 10mi
Dew Point: 55°   Wind: 6mph
Humidity: 91%   Direction: 160°SSE
Pressure: 30.15"   Gusts: NA
Location:  32.93°N, 102.13°W
Report Text: KGNC 230415Z AUTO 16005KT 10SM CLR 14/13 A3015 RMK AO2 T01420128
Loading
Personal Weather Stations






























Interactive Weather Map
Tropical Storm Tracking
New forecast layout! Learn more

10-Day Weather Forecast

Advertisements
Track Severe Weather on mobile